aviador You're here:

CYPX Decoded Metar

PUVIRGNITUQ in QC, CANADA
Report Time2017-08-24 00:00:00
UTC Time2017-08-24 01:09:26
Flight Rules Old
Wind320° at 14 kt
W.Decomp.*RWY 01: 12.2 kt HW 6.8 kt LCW
W.Rank320° ranks 3
Current wind is above 320° avg. (12.3)
Visibility9999 m
Phenomena:N/A
Clouds:Few 240 Hf
Expected CloudBase > 2,400 ft AGL from Temp-Dew spread
CeilingNone
Temp13°C (ISA -2)
Dew Point07°C (67% RH)
AAT7.3°C
QNH1012 hPa
Density Alt26 ft
Elevation75 ft
Report Wrong Elevation
Raw Report
CYPX 240000Z AUTO 32014KT 9SM FEW240 13/07 A2987 RMK SLP116=

Extra information for CYPX:More info

Metar Taf Metar & Taf Last 4 Metars F.Rules Stats Wind Profile Meteogram Temp Stats Airport Information Weather charts Add Link Nearby VenuesMetar ALERT Operation Metar Decoded Social comments